Bewolking Meer informatie Parkstad Weather Satellite


Neerslagradar Meer informatie Parkstad Rain Snow Radar


Onweersbuien Meer informatie Parkstad Lighntning


24/7 Weercamera Meer informatie Parkstad Weathercam


Natuurbrandrisico
CBI






Het weer levert geen direct gevaar op in Parkstad.    Er zijn geen waarschuwingen afgegeven voor Parkstad (045)

METAR rapporten vliegvelden

   
EHBK - Beek Nederland
Gewijzigd: 20-03-2019 18:25
Gedeeltelijk bewolkt  
Gedeeltelijk bewolkt  
   Wind: ZW 9.3 km/h
Wind: ZW 9.3 km/h
Temperatuur: 11°C
Dauwpunt: 6°C
Vochtigheid: 72%
Barometer: 1033 hPa
Satelliet beelden: Gedeeltelijk bewolkt
Zicht: meer dan 10 km
Bewolking: Gedeeltelijk bewolkt
EHBK 201725Z AUTO 22005KT 9999 NSC 11/06 Q1033 NOSIG
EHBK - Maastricht Nederland
Gewijzigd: 20-03-2019 18:25
Gedeeltelijk bewolkt  
Gedeeltelijk bewolkt  
   Wind: ZW 9.3 km/h
Wind: ZW 9.3 km/h
Temperatuur: 11°C
Dauwpunt: 6°C
Vochtigheid: 72%
Barometer: 1033 hPa
Satelliet beelden: Gedeeltelijk bewolkt
Zicht: meer dan 10 km
Bewolking: Gedeeltelijk bewolkt
EHBK 201725Z AUTO 22005KT 9999 NSC 11/06 Q1033 NOSIG
EBLG - Liège België
Gewijzigd: 20-03-2019 18:20
Helder  
Helder  
   Wind: WNW 1.9 km/h
Wind: WNW 1.9 km/h
Temperatuur: 11°C
Dauwpunt: 5°C
Vochtigheid: 67%
Barometer: 1034 hPa
Zicht: meer dan 10 km
Bewolking: Helder
EBLG 201720Z 30001KT CAVOK 11/05 Q1034 NOSIG
EDDK - Köln/Bonn Duitsland
Gewijzigd: 20-03-2019 18:20
Helder  
Helder  
   Wind: NW 7.4 km/h
Wind: NW 7.4 km/h
Temperatuur: 11°C
Dauwpunt: 3°C
Vochtigheid: 58%
Barometer: 1034 hPa
Zicht: meer dan 10 km
Bewolking: Helder
EDDK 201720Z 32004KT CAVOK 11/03 Q1034 NOSIG
EDDL - Düsseldorf Duitsland
Gewijzigd: 20-03-2019 18:20
Grotendeels bewolkt  
Grotendeels bewolkt  
   Wind: ZW 9.3 km/h
Wind: ZW 9.3 km/h
Temperatuur: 12°C
Dauwpunt: 7°C
Vochtigheid: 72%
Barometer: 1033 hPa
Satelliet beelden: Grotendeels bewolkt
Zicht: meer dan 10 km
Bewolking: Licht bewolkt 914 m,
Grotendeels bewolkt 1189 m
EDDL 201720Z 23005KT 9999 FEW030 BKN039 12/07 Q1033 NOSIG
EHEH - Eindhoven Nederland
Gewijzigd: 20-03-2019 18:25
Bewolking  
Bewolking  
   Wind: ZW 3.7 km/h
Wind: ZW 3.7 km/h
Temperatuur: 12°C
Dauwpunt: 8°C
Vochtigheid: 77%
Barometer: 1033 hPa
Satelliet beelden: Bewolking
Zicht: meer dan 10 km
Bewolking: Grotendeels bewolkt 793 m,
Bewolking 884 m
EHEH 201725Z AUTO 23002KT 9999 BKN026/// OVC029/// 12/08 Q1033 BLU 23003KT 9999 BKN025 OVC030
ELLX - Luxemburg Luxemburg
Gewijzigd: 20-03-2019 18:20
Helder  
Helder  
   Wind: NO 9.3 km/h
Wind: NO 9.3 km/h
Temperatuur: 11°C
Dauwpunt: 0°C
Vochtigheid: 47%
Barometer: 1033 hPa
Zicht: meer dan 10 km
Bewolking: Helder
ELLX 201720Z 04005KT 010V080 CAVOK 11/00 Q1033 NOSIG
EGLL - London England
Gewijzigd: 20-03-2019 18:50
Bewolking  
Bewolking  
   Wind: Westen 13 km/h
Wind: Westen 13 km/h
Temperatuur: 12°C
Dauwpunt: 8°C
Vochtigheid: 77%
Barometer: 1033 hPa
Satelliet beelden: Bewolking
Zicht: meer dan 10 km
Bewolking: Bewolking 671 m
EGLL 201750Z AUTO 28007KT 9999 OVC022 12/08 Q1033
EBAW - Antwerpen België
Gewijzigd: 20-03-2019 18:20
Grotendeels bewolkt  
Grotendeels bewolkt  
   Wind: Westen 11.1 km/h
Wind: Westen 11.1 km/h
Temperatuur: 13°C
Dauwpunt: 7°C
Vochtigheid: 67%
Barometer: 1034 hPa
Satelliet beelden: Grotendeels bewolkt
Zicht: meer dan 10 km
Bewolking: Grotendeels bewolkt 914 m
EBAW 201720Z 27006KT 9999 BKN030 13/07 Q1034 NOSIG
EBOS - Oostende België
Gewijzigd: 20-03-2019 18:20
Grotendeels bewolkt  
Grotendeels bewolkt  
   Wind: WNW 11.1 km/h
Wind: WNW 11.1 km/h
Temperatuur: 10°C
Voelt als: 8°C
Dauwpunt: 7°C
Vochtigheid: 82%
Barometer: 1034 hPa
Satelliet beelden: Grotendeels bewolkt
Zicht: meer dan 10 km
Bewolking: Licht bewolkt 366 m,
Grotendeels bewolkt 701 m
EBOS 201720Z 29006KT 9999 FEW012 BKN023 10/07 Q1034 NOSIG
LEAL - La Nucia Spanje
Gewijzigd: 20-03-2019 18:30
Helder  
Helder  
   Wind: Oosten 13 km/h
Wind: Oosten 13 km/h
Temperatuur: 13°C
Dauwpunt: 5°C
Vochtigheid: 59%
Barometer: 1026 hPa
Zicht: meer dan 10 km
Bewolking: Helder
LEAL 201730Z 08007KT CAVOK 13/05 Q1026 NOSIG
TNCA - Oranjestad Aruba
Gewijzigd: 20-03-2019 18:00
Gedeeltelijk bewolkt  
Gedeeltelijk bewolkt  
   Wind: Oosten 31.5 km/h
Wind: Oosten 31.5 km/h
Temperatuur: 28°C
Gevoelstemperatuur: 30°C
Dauwpunt: 21°C
Vochtigheid: 66%
Barometer: 1014 hPa
Satelliet beelden: Gedeeltelijk bewolkt
Zicht: meer dan 10 km
Bewolking: Gedeeltelijk bewolkt 762 m
TNCA 201700Z 08017KT 9999 SCT025 28/21 Q1014 NOSIG
TNCC - Willemstad Curacao
Gewijzigd: 20-03-2019 18:00
Helder  
Helder  
   Wind: Oosten 24.1 km/h
Wind: Oosten 24.1 km/h
Temperatuur: 30°C
Gevoelstemperatuur: 32°C
Dauwpunt: 20°C
Vochtigheid: 55%
Barometer: 1014 hPa
Satelliet beelden: Helder
Zicht: meer dan 10 km
Bewolking: Helder
TNCC 201700Z AUTO 10013KT 9999 NCD 30/20 Q1014 NOSIG
MTPP - Port au Prince Haitië
Gewijzigd: 20-03-2019 18:00
Licht bewolkt  
Licht bewolkt  
   Wind: WNW 18.5 km/h
Wind: WNW 18.5 km/h
Temperatuur: 31°C
Gevoelstemperatuur: 34°C
Dauwpunt: 21°C
Vochtigheid: 55%
Barometer: 1013 hPa
Satelliet beelden: Licht bewolkt
Zicht: 9 km
Bewolking: Licht bewolkt 853 m
MTPP 201700Z 29010KT 9000 FEW028 31/21 Q1013 A2994
ENVA - Trondheim Noorwegen
Gewijzigd: 20-03-2019 18:20
Grotendeels bewolkt  
Grotendeels bewolkt  
   Wind: WZW 24.1 km/h
Wind: WZW 24.1 km/h
Temperatuur: 4°C
Voelt als: -1°C
Dauwpunt: 2°C
Vochtigheid: 87%
Barometer: 1015 hPa
Satelliet beelden: Grotendeels bewolkt
Zicht: meer dan 10 km
Bewolking: Gedeeltelijk bewolkt 884 m,
Grotendeels bewolkt 2682 m
ENVA 201720Z 24013KT 9999 SCT029 BKN088 04/02 Q1015 TEMPO 27020G30KT 4000 SHRAGS BKN014CB RMK WIND 670FT 23016KT
ENBO - Bodø Noorwegen
Gewijzigd: 20-03-2019 18:20
Kleine regenbuien, Neerslag, Grotendeels bewolkt  
Kleine regenbuien, Neerslag, Grotendeels bewolkt  
   Wind: ZW 37 km/h
Wind: ZW 37 km/h
Temperatuur: 4°C
Voelt als: -2°C
Dauwpunt: 1°C
Vochtigheid: 81%
Barometer: 1003 hPa
Satelliet beelden: Grotendeels bewolkt
Zicht: meer dan 10 km
Bewolking: Gedeeltelijk bewolkt 457 m,
Grotendeels bewolkt 610 m
ENBO 201720Z 22020KT 9999 -SHRA SCT015CB BKN020 04/01 Q1003 TEMPO 23025G35KT SHRAGS BKN014CB
ETNG - Geilenkirchen Duitsland
Gewijzigd: 20-03-2019 18:50
Grotendeels bewolkt  
Grotendeels bewolkt  
   Wind: WZW 5.6 km/h
Wind: WZW 5.6 km/h
Temperatuur: 12°C
Dauwpunt: 6°C
Vochtigheid: 67%
Barometer: 1033 hPa
Satelliet beelden: Grotendeels bewolkt
Zicht: meer dan 10 km
Bewolking: Licht bewolkt 1067 m,
Grotendeels bewolkt 2134 m,
Grotendeels bewolkt 3962 m
ETNG 201750Z 24003KT 9999 FEW035 BKN070 BKN130 12/06 Q1033 NOSIG
 

Script ontwikkeld door  Saratoga-weather.org Aangepast voor de template door  Weerstation Leuven

U vindt ons ook hier:

Het Weer Aktueel

WOW Nederland KNMI

Vereniging voor Weerkunde en Klimatologie

UK Met Office Weather Observation Website (WOW)

WeatherCloud

Weather Underground

Awekas

Weatherlink IP

HAMweather, WeatherForYou, PWS Weather

Citizen Weather Observer Program (CWOP)

Apparatuur in gebruik:

Hardwareleverancier
Weerhuisje

Weerstation
Vantage Pro2+ UV

Weercomputer's
alix3d2 & wl330n

Weerprogramma's
Smartbedded

Satelliet NOAA's
WRX137 & KX137

Satelliet Eumetsat
Ayecka SR1 & Triax

Bliksemdetectie
Boltek StormTracker

Webleverancier
F-Service

Weerhuisje

Vantage Pro2+ UV

alix3d2 & wl330n

Smartbedded

WRX137 & KX137

Ayecka SR1 & Triax

Boltek StormTracker

F-Service